Quesada, Spain
Current Conditions -  °F | °C
As of 3:00 PM on Monday 22 Dec 2014 (Local Time) from LEGR Reporting Station
Clear Clear  
Wind Chill: 59°   Ceiling: Unl
Heat Index: 59°   Visibility: 6mi
Dew Point: 43°   Wind: 8mph
Humidity: 55%   Direction: 100°E
Pressure: 30.36"   Gusts: NA
Location:  37.84°N, 3.07°W
Report Text: LEGR 221400Z 10007KT 060V120 CAVOK 15/06 Q1028
Loading
Personal Weather Stations






























Interactive Weather Map New forecast layout! Learn more

10-Day Weather Forecast

Advertisements
Track Severe Weather on mobile